Time;durP1;ratioP1;P1;durP2;ratioP2;P2;SDS_P1;SDS_P2;PMS_P1;PMS_P2;Temp;Humidity;BMP_temperature;BMP_pressure;BME280_temperature;BME280_humidity;BME280_pressure;Samples;Min_cycle;Max_cycle;Signal;HPM_P1;HPM_P2
2022/05/29 00:00:16;;;;;;;9.35;3.35;;;;;;;;;;5086995;28;20215;-64
2022/05/29 00:02:42;;;;;;;11.50;4.07;;;;;;;;;;5086146;28;20035;-64
2022/05/29 00:05:10;;;;;;;9.75;3.47;;;;;;;;;;5084736;28;20040;-64
2022/05/29 00:07:36;;;;;;;8.60;3.03;;;;;;;;;;5090113;28;20498;-64
2022/05/29 00:10:04;;;;;;;7.97;3.65;;;;;;;;;;5084422;28;20184;-64
2022/05/29 00:12:31;;;;;;;11.50;3.17;;;;;;;;;;5084182;28;20093;-64
2022/05/29 00:14:57;;;;;;;7.57;3.00;;;;;;;;;;5071966;28;20042;-64
2022/05/29 00:17:23;;;;;;;10.10;3.58;;;;;;;;;;5088205;28;20044;-63
2022/05/29 00:19:49;;;;;;;10.02;3.58;;;;;;;;;;5093508;28;20039;-64
2022/05/29 00:22:18;;;;;;;12.82;4.30;;;;;;;;;;5089820;28;20032;-64
2022/05/29 00:24:47;;;;;;;8.50;3.65;;;;;;;;;;5090510;28;20896;-64
2022/05/29 00:27:16;;;;;;;11.45;4.20;;;;;;;;;;5091099;27;20067;-63
2022/05/29 00:29:43;;;;;;;16.58;4.53;;;;;;;;;;5090927;28;20048;-64
2022/05/29 00:32:09;;;;;;;12.32;3.85;;;;;;;;;;5092698;27;20043;-64
2022/05/29 00:34:36;;;;;;;7.78;2.80;;;;;;;;;;5090413;27;20521;-64
2022/05/29 00:37:03;;;;;;;17.17;4.47;;;;;;;;;;5093576;28;20032;-64
2022/05/29 00:39:30;;;;;;;5.78;3.08;;;;;;;;;;5090409;27;20141;-64
2022/05/29 00:41:56;;;;;;;11.27;4.32;;;;;;;;;;5091040;27;20070;-64
2022/05/29 00:44:23;;;;;;;6.63;2.97;;;;;;;;;;5091514;28;20096;-64
2022/05/29 00:46:57;;;;;;;6.40;2.67;;;;;;;;;;5092709;28;20032;-63
2022/05/29 00:49:28;;;;;;;7.85;3.17;;;;;;;;;;5088821;27;20052;-64
2022/05/29 00:51:57;;;;;;;8.15;3.42;;;;;;;;;;5098396;28;20658;-64
2022/05/29 00:54:23;;;;;;;9.48;4.13;;;;;;;;;;5099930;27;20040;-64
2022/05/29 00:56:50;;;;;;;9.43;2.85;;;;;;;;;;5071465;28;20131;-63
2022/05/29 00:59:19;;;;;;;6.18;3.45;;;;;;;;;;5088731;28;20044;-64
2022/05/29 01:01:45;;;;;;;5.70;2.42;;;;;;;;;;5089176;28;20036;-64
2022/05/29 01:04:12;;;;;;;7.78;2.72;;;;;;;;;;5087952;28;20031;-64
2022/05/29 01:06:39;;;;;;;11.40;3.63;;;;;;;;;;5089120;27;20056;-64
2022/05/29 01:09:07;;;;;;;5.97;3.30;;;;;;;;;;5087345;27;20059;-64
2022/05/29 01:11:45;;;;;;;5.35;2.63;;;;;;;;;;5098187;27;20489;-64
2022/05/29 01:14:11;;;;;;;8.25;3.03;;;;;;;;;;5092152;27;20090;-64
2022/05/29 01:16:47;;;;;;;9.38;3.25;;;;;;;;;;5090755;27;20512;-64
2022/05/29 01:19:24;;;;;;;8.73;3.78;;;;;;;;;;5088939;27;20047;-64
2022/05/29 01:22:02;;;;;;;9.70;3.35;;;;;;;;;;5090075;27;20191;-64
2022/05/29 01:24:45;;;;;;;12.27;3.70;;;;;;;;;;5088844;27;20043;-64
2022/05/29 01:27:32;;;;;;;7.18;3.35;;;;;;;;;;5088798;27;20039;-64
2022/05/29 01:30:07;;;;;;;11.65;3.78;;;;;;;;;;5086821;28;20521;-64
2022/05/29 01:32:33;;;;;;;7.53;4.00;;;;;;;;;;5098307;27;20043;-64
2022/05/29 01:35:04;;;;;;;6.65;3.40;;;;;;;;;;5087868;27;20040;-63
2022/05/29 01:37:36;;;;;;;10.85;3.83;;;;;;;;;;5086867;28;20044;-64
2022/05/29 01:40:02;;;;;;;10.15;4.40;;;;;;;;;;5090284;28;20129;-63
2022/05/29 01:42:37;;;;;;;12.60;4.10;;;;;;;;;;5086922;27;20486;-64
2022/05/29 01:45:11;;;;;;;8.13;3.22;;;;;;;;;;5090782;27;20039;-64
2022/05/29 01:47:40;;;;;;;7.05;3.08;;;;;;;;;;5090562;28;20101;-63
2022/05/29 01:50:08;;;;;;;8.75;3.38;;;;;;;;;;5088779;28;20519;-64
2022/05/29 01:52:54;;;;;;;9.68;4.03;;;;;;;;;;5096072;28;20277;-63
2022/05/29 01:55:23;;;;;;;12.70;4.43;;;;;;;;;;5085910;27;20043;-64
2022/05/29 01:57:51;;;;;;;8.57;3.30;;;;;;;;;;5086068;28;20472;-64
2022/05/29 02:00:19;;;;;;;11.88;3.75;;;;;;;;;;5090148;27;20101;-64
2022/05/29 02:02:51;;;;;;;14.82;3.60;;;;;;;;;;5086823;28;20036;-64
2022/05/29 02:05:23;;;;;;;9.13;3.15;;;;;;;;;;5093807;27;20089;-64
2022/05/29 02:07:52;;;;;;;11.00;3.08;;;;;;;;;;5087547;28;20559;-64
2022/05/29 02:10:32;;;;;;;5.78;3.30;;;;;;;;;;5086387;27;20067;-63
2022/05/29 02:13:09;;;;;;;8.63;3.45;;;;;;;;;;5091760;27;20111;-63
2022/05/29 02:15:46;;;;;;;11.15;3.55;;;;;;;;;;5088438;27;20040;-64
2022/05/29 02:18:18;;;;;;;7.65;3.20;;;;;;;;;;5086822;28;20051;-64
2022/05/29 02:20:45;;;;;;;8.57;3.17;;;;;;;;;;5093823;27;20409;-64
2022/05/29 02:23:27;;;;;;;10.02;3.50;;;;;;;;;;5087249;28;20085;-64
2022/05/29 02:25:54;;;;;;;6.70;2.92;;;;;;;;;;5088508;28;20290;-64
2022/05/29 02:28:29;;;;;;;6.78;3.00;;;;;;;;;;5091531;28;20147;-64
2022/05/29 02:31:14;;;;;;;7.00;2.90;;;;;;;;;;5090912;28;20554;-64
2022/05/29 02:33:50;;;;;;;6.13;3.25;;;;;;;;;;5086029;27;20048;-64
2022/05/29 02:36:23;;;;;;;5.93;1.88;;;;;;;;;;5084782;28;20468;-63
2022/05/29 02:38:49;;;;;;;8.07;2.38;;;;;;;;;;5090881;28;20427;-64
2022/05/29 02:41:17;;;;;;;4.10;1.73;;;;;;;;;;5092196;27;20039;-64
2022/05/29 02:43:53;;;;;;;6.72;2.42;;;;;;;;;;5089030;27;20513;-63
2022/05/29 02:46:36;;;;;;;5.43;2.33;;;;;;;;;;5089688;28;20036;-63
2022/05/29 02:49:24;;;;;;;5.20;2.35;;;;;;;;;;5090115;27;20032;-64
2022/05/29 02:51:50;;;;;;;6.20;3.15;;;;;;;;;;5089609;27;20086;-64
2022/05/29 02:54:25;;;;;;;6.78;2.20;;;;;;;;;;5084208;27;20119;-63
2022/05/29 02:56:54;;;;;;;7.97;2.53;;;;;;;;;;5088266;27;20040;-64
2022/05/29 02:59:25;;;;;;;7.10;2.88;;;;;;;;;;5085390;27;20796;-64
2022/05/29 03:02:09;;;;;;;12.68;3.10;;;;;;;;;;5085022;28;20039;-64
2022/05/29 03:04:54;;;;;;;12.18;3.35;;;;;;;;;;5099642;28;20411;-63
2022/05/29 03:07:45;;;;;;;9.90;2.83;;;;;;;;;;5087383;27;20060;-63
2022/05/29 03:10:11;;;;;;;9.80;2.92;;;;;;;;;;5092543;28;20055;-64
2022/05/29 03:12:48;;;;;;;8.75;3.63;;;;;;;;;;5087704;27;20040;-63
2022/05/29 03:15:33;;;;;;;10.43;3.22;;;;;;;;;;5086723;28;20052;-64
2022/05/29 03:18:10;;;;;;;13.70;4.50;;;;;;;;;;5087564;27;20036;-63
2022/05/29 03:20:39;;;;;;;10.32;3.28;;;;;;;;;;5087307;28;20032;-64
2022/05/29 03:23:24;;;;;;;8.93;2.88;;;;;;;;;;5086881;28;20036;-63
2022/05/29 03:25:55;;;;;;;7.63;3.00;;;;;;;;;;5091211;28;20039;-64
2022/05/29 03:28:21;;;;;;;10.90;3.45;;;;;;;;;;5088268;28;20715;-64
2022/05/29 03:30:49;;;;;;;10.48;2.95;;;;;;;;;;5089070;28;20138;-64
2022/05/29 03:33:16;;;;;;;10.50;3.10;;;;;;;;;;5087517;27;20605;-64
2022/05/29 03:35:46;;;;;;;9.50;3.67;;;;;;;;;;5087131;28;20048;-64
2022/05/29 03:38:12;;;;;;;9.07;2.85;;;;;;;;;;5084804;27;20488;-63
2022/05/29 03:40:39;;;;;;;10.15;2.92;;;;;;;;;;5092951;28;20362;-63
2022/05/29 03:43:05;;;;;;;6.63;2.95;;;;;;;;;;5082911;28;20036;-64
2022/05/29 03:45:32;;;;;;;14.55;3.50;;;;;;;;;;5090519;28;20086;-64
2022/05/29 03:47:58;;;;;;;8.68;2.92;;;;;;;;;;5097457;28;20858;-64
2022/05/29 03:50:25;;;;;;;8.85;2.83;;;;;;;;;;5084601;28;20101;-63
2022/05/29 03:52:51;;;;;;;6.07;2.50;;;;;;;;;;5094965;28;20449;-63
2022/05/29 03:55:20;;;;;;;6.05;3.25;;;;;;;;;;5088065;27;20056;-64
2022/05/29 03:57:47;;;;;;;7.38;2.83;;;;;;;;;;5091595;27;20096;-66
2022/05/29 04:00:13;;;;;;;7.32;2.80;;;;;;;;;;5088259;28;20068;-64
2022/05/29 04:02:40;;;;;;;8.15;2.58;;;;;;;;;;5088931;28;20458;-64
2022/05/29 04:05:07;;;;;;;10.25;3.25;;;;;;;;;;5090896;27;20043;-63
2022/05/29 04:13:04;;;;;;;9.00;2.55;;;;;;;;;;5098665;27;20183;-63
2022/05/29 04:15:32;;;;;;;8.23;2.50;;;;;;;;;;5094434;27;20040;-63
2022/05/29 04:17:59;;;;;;;6.30;2.28;;;;;;;;;;5070773;28;20043;-64
2022/05/29 04:20:25;;;;;;;6.60;3.28;;;;;;;;;;5091505;27;20385;-64
2022/05/29 04:22:51;;;;;;;7.65;2.45;;;;;;;;;;5091225;27;20036;-64
2022/05/29 04:25:19;;;;;;;7.03;1.98;;;;;;;;;;5092546;27;20130;-64
2022/05/29 04:27:45;;;;;;;11.30;2.80;;;;;;;;;;5094307;28;20044;-64
2022/05/29 04:30:12;;;;;;;4.95;2.08;;;;;;;;;;5096307;27;20083;-64
2022/05/29 04:35:23;;;;;;;6.43;2.60;;;;;;;;;;5095053;28;20142;-64
2022/05/29 04:37:49;;;;;;;8.82;3.13;;;;;;;;;;5087295;28;20040;-64
2022/05/29 04:40:15;;;;;;;14.30;3.45;;;;;;;;;;5086492;27;20039;-64
2022/05/29 04:42:42;;;;;;;12.80;3.38;;;;;;;;;;5086363;28;20039;-63
2022/05/29 04:45:08;;;;;;;11.95;3.58;;;;;;;;;;5087555;27;20040;-64
2022/05/29 04:47:34;;;;;;;10.80;3.00;;;;;;;;;;5094974;27;20445;-64
2022/05/29 04:50:00;;;;;;;11.45;4.10;;;;;;;;;;5088786;28;20047;-64
2022/05/29 04:52:29;;;;;;;14.63;3.92;;;;;;;;;;5086950;28;20575;-64
2022/05/29 04:54:55;;;;;;;10.15;3.28;;;;;;;;;;5087917;28;20051;-64
2022/05/29 04:57:21;;;;;;;10.45;3.72;;;;;;;;;;5088100;27;20044;-64
2022/05/29 04:59:47;;;;;;;10.50;3.22;;;;;;;;;;5088710;27;20087;-64
2022/05/29 05:02:13;;;;;;;9.68;3.00;;;;;;;;;;5094657;28;20031;-63
2022/05/29 05:04:39;;;;;;;7.20;2.55;;;;;;;;;;5097069;27;20093;-63
2022/05/29 05:07:05;;;;;;;12.02;3.40;;;;;;;;;;5095923;28;20565;-63
2022/05/29 05:09:32;;;;;;;8.07;2.63;;;;;;;;;;5097473;28;20043;-64
2022/05/29 05:11:58;;;;;;;9.70;2.88;;;;;;;;;;5095184;28;20036;-64
2022/05/29 05:14:25;;;;;;;10.80;3.45;;;;;;;;;;5093084;28;20078;-63
2022/05/29 05:16:53;;;;;;;13.52;3.35;;;;;;;;;;5092348;27;20040;-63
2022/05/29 05:19:19;;;;;;;18.55;3.63;;;;;;;;;;5092578;28;20100;-64
2022/05/29 05:21:45;;;;;;;13.25;4.10;;;;;;;;;;5087246;27;20047;-64
2022/05/29 05:24:12;;;;;;;10.15;4.82;;;;;;;;;;5088334;27;20402;-64
2022/05/29 05:26:38;;;;;;;8.23;3.00;;;;;;;;;;5088250;27;20047;-63
2022/05/29 05:29:04;;;;;;;5.00;3.13;;;;;;;;;;5088841;28;20210;-64
2022/05/29 05:31:31;;;;;;;11.93;3.30;;;;;;;;;;5100954;27;20048;-64
2022/05/29 05:33:57;;;;;;;5.45;2.38;;;;;;;;;;5086429;28;20055;-64
2022/05/29 05:36:23;;;;;;;7.00;3.38;;;;;;;;;;5089602;27;20043;-64
2022/05/29 05:38:51;;;;;;;12.07;3.10;;;;;;;;;;5095659;27;20485;-64
2022/05/29 05:41:17;;;;;;;8.00;2.58;;;;;;;;;;5094890;27;20051;-64
2022/05/29 05:43:43;;;;;;;8.95;4.00;;;;;;;;;;5095628;27;20115;-63
2022/05/29 05:46:11;;;;;;;13.52;3.15;;;;;;;;;;5091239;27;20043;-64
2022/05/29 05:48:38;;;;;;;8.23;3.15;;;;;;;;;;5091018;28;20052;-64
2022/05/29 05:51:04;;;;;;;13.07;3.50;;;;;;;;;;5098815;27;20036;-64
2022/05/29 05:53:30;;;;;;;12.98;4.30;;;;;;;;;;5067868;28;20075;-63
2022/05/29 05:55:56;;;;;;;14.20;3.70;;;;;;;;;;5086704;27;20075;-63
2022/05/29 05:58:22;;;;;;;9.27;3.10;;;;;;;;;;5093614;28;20130;-64
2022/05/29 06:00:49;;;;;;;13.60;4.10;;;;;;;;;;5097576;28;20032;-64
2022/05/29 06:03:16;;;;;;;5.53;2.85;;;;;;;;;;5097884;28;20480;-63
2022/05/29 06:05:42;;;;;;;15.35;3.70;;;;;;;;;;5090377;27;20076;-63
2022/05/29 06:08:09;;;;;;;13.50;4.03;;;;;;;;;;5095256;28;20282;-64
2022/05/29 06:10:35;;;;;;;10.70;3.53;;;;;;;;;;5092540;27;20122;-63
2022/05/29 06:13:02;;;;;;;14.00;2.90;;;;;;;;;;5094841;28;20119;-63
2022/05/29 06:15:28;;;;;;;5.32;2.55;;;;;;;;;;5090865;27;20040;-64
2022/05/29 06:17:55;;;;;;;11.27;3.55;;;;;;;;;;5089247;28;20043;-63
2022/05/29 06:20:21;;;;;;;10.60;3.22;;;;;;;;;;5089060;28;20845;-64
2022/05/29 06:22:47;;;;;;;6.68;2.80;;;;;;;;;;5088065;28;20039;-64
2022/05/29 06:25:13;;;;;;;9.57;2.65;;;;;;;;;;5096813;28;20635;-64
2022/05/29 06:27:41;;;;;;;10.43;2.42;;;;;;;;;;5086144;27;20043;-63
2022/05/29 06:30:08;;;;;;;7.72;2.47;;;;;;;;;;5087367;27;20417;-64
2022/05/29 06:32:35;;;;;;;10.73;2.53;;;;;;;;;;5092754;27;20104;-63
2022/05/29 06:35:01;;;;;;;8.85;3.35;;;;;;;;;;5093391;27;20089;-63
2022/05/29 06:37:28;;;;;;;12.02;2.67;;;;;;;;;;5090939;27;20496;-63
2022/05/29 06:39:54;;;;;;;13.27;2.67;;;;;;;;;;5085364;27;20471;-63
2022/05/29 06:42:20;;;;;;;5.50;2.58;;;;;;;;;;5081929;28;20222;-63
2022/05/29 06:44:46;;;;;;;7.50;2.88;;;;;;;;;;5091853;27;20036;-64
2022/05/29 06:47:14;;;;;;;12.23;2.85;;;;;;;;;;5097636;28;20046;-63
2022/05/29 06:49:40;;;;;;;7.30;2.70;;;;;;;;;;5093648;27;20110;-64
2022/05/29 06:52:07;;;;;;;5.45;2.28;;;;;;;;;;5098347;28;20035;-64
2022/05/29 06:54:34;;;;;;;8.45;2.67;;;;;;;;;;5098975;28;20431;-64
2022/05/29 06:57:00;;;;;;;8.40;3.92;;;;;;;;;;5086833;27;20040;-63
2022/05/29 06:59:26;;;;;;;13.63;3.70;;;;;;;;;;5091385;27;20182;-63
2022/05/29 07:07:23;;;;;;;6.57;2.42;;;;;;;;;;5088257;28;20078;-63
2022/05/29 07:09:50;;;;;;;7.43;2.97;;;;;;;;;;5094054;28;20493;-63
2022/05/29 07:12:18;;;;;;;10.18;2.38;;;;;;;;;;5094439;28;20045;-64
2022/05/29 07:14:51;;;;;;;4.93;2.40;;;;;;;;;;5091596;28;20046;-64
2022/05/29 07:17:22;;;;;;;12.88;2.97;;;;;;;;;;5090966;27;20036;-64
2022/05/29 07:19:48;;;;;;;11.38;3.05;;;;;;;;;;5092927;28;20047;-65
2022/05/29 07:22:15;;;;;;;12.65;2.65;;;;;;;;;;5090422;28;20398;-64
2022/05/29 07:24:42;;;;;;;12.85;2.78;;;;;;;;;;5087761;28;20131;-64
2022/05/29 07:27:08;;;;;;;8.85;3.50;;;;;;;;;;5085059;27;20035;-63
2022/05/29 07:29:34;;;;;;;8.23;2.97;;;;;;;;;;5085909;28;20237;-63
2022/05/29 07:32:00;;;;;;;9.20;2.72;;;;;;;;;;5089859;28;20043;-63
2022/05/29 07:34:27;;;;;;;5.55;2.45;;;;;;;;;;5085364;28;20811;-63
2022/05/29 07:36:55;;;;;;;7.53;2.10;;;;;;;;;;5085202;28;20039;-64
2022/05/29 07:39:21;;;;;;;10.48;2.40;;;;;;;;;;5092348;28;20043;-64
2022/05/29 07:44:32;;;;;;;6.85;1.90;;;;;;;;;;5085493;28;20094;-64
2022/05/29 07:46:58;;;;;;;5.40;2.15;;;;;;;;;;5098783;28;20051;-64
2022/05/29 07:49:24;;;;;;;6.68;3.22;;;;;;;;;;5089249;28;20239;-64
2022/05/29 07:51:51;;;;;;;5.85;2.55;;;;;;;;;;5087265;28;20135;-64
2022/05/29 07:54:17;;;;;;;4.68;2.05;;;;;;;;;;5099175;28;20040;-64
2022/05/29 07:56:43;;;;;;;5.53;1.70;;;;;;;;;;5084298;28;20501;-64
2022/05/29 07:59:10;;;;;;;5.57;1.95;;;;;;;;;;5070781;28;20040;-64
2022/05/29 08:01:37;;;;;;;4.20;1.90;;;;;;;;;;5098887;28;20566;-66
2022/05/29 08:04:03;;;;;;;4.78;2.00;;;;;;;;;;5070783;28;20093;-64
2022/05/29 08:06:30;;;;;;;5.53;1.70;;;;;;;;;;5084579;28;20067;-63
2022/05/29 08:08:56;;;;;;;4.28;1.75;;;;;;;;;;5091358;28;20040;-64
2022/05/29 08:11:22;;;;;;;3.40;1.30;;;;;;;;;;5092773;28;20036;-63
2022/05/29 08:13:48;;;;;;;8.32;2.08;;;;;;;;;;5089520;28;20364;-63
2022/05/29 08:16:16;;;;;;;5.15;1.85;;;;;;;;;;5091390;28;20060;-63
2022/05/29 08:18:43;;;;;;;7.13;1.75;;;;;;;;;;5090229;28;20036;-64
2022/05/29 08:21:09;;;;;;;5.43;2.40;;;;;;;;;;5091322;28;20496;-63
2022/05/29 08:23:35;;;;;;;7.88;2.17;;;;;;;;;;5096766;28;20035;-64
2022/05/29 08:31:13;;;;;;;5.50;1.58;;;;;;;;;;5093915;28;20089;-64
2022/05/29 08:33:43;;;;;;;5.63;1.90;;;;;;;;;;5087568;28;20040;-64
2022/05/29 08:36:14;;;;;;;8.18;2.28;;;;;;;;;;5092493;28;20052;-64
2022/05/29 08:38:41;;;;;;;3.78;1.52;;;;;;;;;;5089884;28;20086;-64
2022/05/29 08:41:11;;;;;;;12.43;2.00;;;;;;;;;;5091109;27;20066;-64
2022/05/29 08:43:38;;;;;;;5.35;2.00;;;;;;;;;;5095526;27;20077;-64
2022/05/29 08:46:21;;;;;;;7.35;2.15;;;;;;;;;;5099371;27;20476;-64
2022/05/29 08:48:49;;;;;;;5.32;2.05;;;;;;;;;;5091020;28;20058;-64
2022/05/29 08:51:24;;;;;;;8.32;2.42;;;;;;;;;;5091816;27;20485;-64
2022/05/29 08:54:07;;;;;;;9.55;2.88;;;;;;;;;;5092763;28;20048;-64
2022/05/29 08:56:36;;;;;;;6.80;2.30;;;;;;;;;;5090282;27;20052;-64
2022/05/29 08:59:07;;;;;;;10.50;3.13;;;;;;;;;;5090253;28;20490;-63
2022/05/29 09:01:33;;;;;;;4.47;1.95;;;;;;;;;;5088532;27;20035;-64
2022/05/29 09:04:01;;;;;;;5.57;2.22;;;;;;;;;;5088447;27;20071;-63
2022/05/29 09:06:33;;;;;;;4.53;1.75;;;;;;;;;;5091428;28;20060;-64
2022/05/29 09:09:12;;;;;;;5.07;1.98;;;;;;;;;;5091686;28;20039;-64
2022/05/29 09:11:51;;;;;;;9.35;2.42;;;;;;;;;;5087839;28;20409;-64
2022/05/29 09:14:25;;;;;;;4.13;2.00;;;;;;;;;;5089761;28;20043;-64
2022/05/29 09:17:06;;;;;;;5.80;2.42;;;;;;;;;;5090338;27;20075;-63
2022/05/29 09:19:36;;;;;;;10.00;2.15;;;;;;;;;;5087079;28;20055;-64
2022/05/29 09:22:12;;;;;;;3.58;2.00;;;;;;;;;;5095481;28;20040;-63
2022/05/29 09:24:44;;;;;;;3.78;1.67;;;;;;;;;;5090336;28;20421;-64
2022/05/29 09:27:13;;;;;;;4.85;2.13;;;;;;;;;;5098386;27;20042;-64
2022/05/29 09:29:39;;;;;;;4.68;1.67;;;;;;;;;;5094654;27;20040;-64
2022/05/29 09:32:09;;;;;;;10.55;2.85;;;;;;;;;;5094127;27;20039;-64
2022/05/29 09:34:35;;;;;;;6.22;1.95;;;;;;;;;;5087297;27;20044;-64
2022/05/29 09:37:18;;;;;;;5.53;2.75;;;;;;;;;;5089976;28;20528;-64
2022/05/29 09:39:48;;;;;;;3.58;1.65;;;;;;;;;;5084672;28;20488;-64
2022/05/29 09:42:33;;;;;;;8.00;2.08;;;;;;;;;;5089417;27;20089;-64
2022/05/29 09:45:13;;;;;;;8.48;2.75;;;;;;;;;;5097273;27;20036;-64
2022/05/29 09:50:45;;;;;;;6.57;1.73;;;;;;;;;;5088730;28;20090;-64
2022/05/29 09:53:13;;;;;;;5.25;1.70;;;;;;;;;;5089411;28;20115;-63
2022/05/29 09:55:48;;;;;;;9.10;2.17;;;;;;;;;;5088049;27;20036;-64
2022/05/29 09:58:18;;;;;;;3.17;1.35;;;;;;;;;;5091953;27;20032;-64
2022/05/29 10:00:55;;;;;;;7.70;1.50;;;;;;;;;;5091831;28;20076;-63
2022/05/29 10:03:30;;;;;;;4.82;1.75;;;;;;;;;;5091657;28;20040;-64
2022/05/29 10:06:12;;;;;;;7.00;1.42;;;;;;;;;;5090362;27;20035;-64
2022/05/29 10:08:39;;;;;;;7.50;1.83;;;;;;;;;;5091730;28;20131;-63
2022/05/29 10:11:28;;;;;;;4.75;1.40;;;;;;;;;;5086836;27;20075;-64
2022/05/29 10:13:54;;;;;;;7.57;2.70;;;;;;;;;;5086145;28;20127;-64
2022/05/29 10:16:38;;;;;;;8.15;2.17;;;;;;;;;;5086386;27;20040;-64
2022/05/29 10:19:09;;;;;;;10.57;2.20;;;;;;;;;;5088955;28;20043;-63
2022/05/29 10:21:42;;;;;;;6.15;2.63;;;;;;;;;;5084861;27;20120;-64
2022/05/29 10:24:11;;;;;;;4.53;2.47;;;;;;;;;;5087838;27;20042;-64
2022/05/29 10:26:38;;;;;;;7.43;2.42;;;;;;;;;;5085193;28;20047;-64
2022/05/29 10:29:15;;;;;;;4.57;1.75;;;;;;;;;;5085185;28;20505;-64
2022/05/29 10:31:41;;;;;;;10.68;2.20;;;;;;;;;;5089460;27;20050;-64
2022/05/29 10:34:09;;;;;;;8.27;2.05;;;;;;;;;;5085306;28;20040;-64
2022/05/29 10:36:36;;;;;;;7.60;2.60;;;;;;;;;;5092810;27;20046;-64
2022/05/29 10:39:05;;;;;;;6.30;2.03;;;;;;;;;;5088842;27;20131;-64
2022/05/29 10:41:34;;;;;;;7.55;2.17;;;;;;;;;;5091065;28;20062;-63
2022/05/29 10:44:00;;;;;;;7.05;2.05;;;;;;;;;;5085906;28;20119;-63
2022/05/29 10:46:49;;;;;;;7.05;2.17;;;;;;;;;;5084117;28;20079;-64
2022/05/29 10:49:44;;;;;;;6.03;2.08;;;;;;;;;;5091522;27;20058;-64
2022/05/29 10:52:16;;;;;;;4.45;2.15;;;;;;;;;;5081882;28;20124;-64
2022/05/29 10:54:55;;;;;;;7.30;1.88;;;;;;;;;;5089389;27;20040;-64
2022/05/29 10:57:21;;;;;;;12.25;2.83;;;;;;;;;;5085587;28;20055;-64
2022/05/29 10:59:50;;;;;;;11.95;1.92;;;;;;;;;;5087782;28;20083;-64
2022/05/29 11:05:31;;;;;;;7.75;2.25;;;;;;;;;;5086714;28;20060;-64
2022/05/29 11:08:09;;;;;;;4.32;1.60;;;;;;;;;;5088098;28;20092;-64
2022/05/29 11:10:55;;;;;;;7.65;2.20;;;;;;;;;;5090418;27;20047;-64
2022/05/29 11:13:27;;;;;;;5.15;1.75;;;;;;;;;;5098867;27;20042;-64
2022/05/29 11:16:02;;;;;;;4.93;1.67;;;;;;;;;;5092353;27;20113;-64
2022/05/29 11:18:28;;;;;;;9.20;2.15;;;;;;;;;;5086233;27;20454;-64
2022/05/29 11:20:55;;;;;;;7.65;2.47;;;;;;;;;;5091330;27;20032;-64
2022/05/29 11:23:21;;;;;;;7.38;2.83;;;;;;;;;;5086026;27;20507;-64
2022/05/29 11:26:04;;;;;;;6.38;2.75;;;;;;;;;;5093843;27;20043;-64
2022/05/29 11:28:49;;;;;;;10.88;3.25;;;;;;;;;;5086567;28;20043;-63
2022/05/29 11:31:18;;;;;;;12.30;3.72;;;;;;;;;;5084952;28;20052;-64
2022/05/29 11:33:44;;;;;;;9.15;2.40;;;;;;;;;;5085702;28;20402;-64
2022/05/29 11:36:29;;;;;;;15.13;2.90;;;;;;;;;;5084363;27;20042;-63
2022/05/29 11:39:05;;;;;;;8.10;2.42;;;;;;;;;;5091328;28;20048;-64
2022/05/29 11:41:43;;;;;;;10.40;3.15;;;;;;;;;;5089832;28;20088;-64
2022/05/29 11:44:27;;;;;;;9.45;2.42;;;;;;;;;;5095909;27;20035;-63
2022/05/29 11:52:33;;;;;;;6.03;2.63;;;;;;;;;;5092960;28;20097;-64
2022/05/29 11:55:05;;;;;;;5.03;2.53;;;;;;;;;;5084759;28;20421;-64
2022/05/29 11:57:43;;;;;;;7.07;1.85;;;;;;;;;;5087953;28;20687;-64
2022/05/29 12:00:13;;;;;;;8.15;2.40;;;;;;;;;;5090248;28;20039;-64
2022/05/29 12:02:54;;;;;;;9.80;2.40;;;;;;;;;;5085031;28;20097;-64
2022/05/29 12:05:38;;;;;;;5.63;2.45;;;;;;;;;;5087397;28;20040;-64
2022/05/29 12:08:08;;;;;;;7.78;3.22;;;;;;;;;;5089197;28;20055;-64
2022/05/29 12:10:42;;;;;;;4.93;2.40;;;;;;;;;;5088435;28;20062;-64
2022/05/29 12:13:11;;;;;;;5.63;2.28;;;;;;;;;;5083686;28;20047;-64
2022/05/29 12:15:38;;;;;;;6.82;1.98;;;;;;;;;;5097896;27;20035;-64
2022/05/29 12:18:12;;;;;;;5.60;2.17;;;;;;;;;;5093449;27;20114;-64
2022/05/29 12:20:38;;;;;;;9.85;2.58;;;;;;;;;;5089820;28;20082;-64
2022/05/29 12:23:06;;;;;;;6.82;1.63;;;;;;;;;;5089231;28;20047;-64
2022/05/29 12:25:48;;;;;;;8.75;1.55;;;;;;;;;;5090305;27;20287;-64
2022/05/29 12:28:20;;;;;;;9.25;2.40;;;;;;;;;;5089585;28;20032;-64
2022/05/29 12:30:49;;;;;;;9.17;1.97;;;;;;;;;;5087980;27;20675;-64
2022/05/29 12:33:16;;;;;;;9.35;2.35;;;;;;;;;;5096335;27;20277;-64
2022/05/29 12:35:49;;;;;;;7.93;2.28;;;;;;;;;;5099080;28;20047;-64
2022/05/29 12:38:30;;;;;;;8.35;2.65;;;;;;;;;;5094895;27;20116;-64
2022/05/29 12:41:00;;;;;;;6.47;2.00;;;;;;;;;;5092215;27;20717;-64
2022/05/29 12:43:26;;;;;;;7.75;2.00;;;;;;;;;;5098482;27;20036;-64
2022/05/29 12:45:52;;;;;;;6.10;1.95;;;;;;;;;;5095836;27;20043;-64
2022/05/29 12:48:18;;;;;;;6.78;2.13;;;;;;;;;;5097302;28;20040;-64
2022/05/29 12:50:52;;;;;;;6.18;2.13;;;;;;;;;;5098114;28;20040;-65
2022/05/29 12:53:18;;;;;;;10.73;2.22;;;;;;;;;;5102821;28;20039;-64
2022/05/29 12:55:54;;;;;;;10.07;1.92;;;;;;;;;;5101689;27;20039;-64
2022/05/29 12:58:34;;;;;;;9.18;2.40;;;;;;;;;;5093089;27;20404;-64
2022/05/29 13:01:22;;;;;;;11.98;2.35;;;;;;;;;;5092431;28;20051;-64
2022/05/29 13:04:01;;;;;;;4.43;2.20;;;;;;;;;;5091314;28;20469;-64
2022/05/29 13:06:46;;;;;;;3.30;1.60;;;;;;;;;;5091841;28;20337;-64
2022/05/29 13:09:24;;;;;;;6.75;3.00;;;;;;;;;;5090272;28;20051;-64
2022/05/29 13:11:52;;;;;;;7.30;2.05;;;;;;;;;;5089774;28;20246;-64
2022/05/29 13:14:20;;;;;;;7.63;2.47;;;;;;;;;;5092417;27;20127;-64
2022/05/29 13:16:46;;;;;;;6.97;1.83;;;;;;;;;;5092278;27;20047;-64
2022/05/29 13:19:17;;;;;;;6.13;1.98;;;;;;;;;;5092666;28;20044;-64
2022/05/29 13:21:54;;;;;;;10.13;3.25;;;;;;;;;;5092326;27;20489;-64
2022/05/29 13:24:22;;;;;;;7.10;2.88;;;;;;;;;;5096538;27;20501;-65
2022/05/29 13:27:08;;;;;;;7.35;2.92;;;;;;;;;;5097741;28;20475;-64
2022/05/29 13:29:40;;;;;;;6.80;2.70;;;;;;;;;;5091664;27;20040;-64
2022/05/29 13:32:15;;;;;;;9.52;3.05;;;;;;;;;;5092704;27;20088;-64
2022/05/29 13:34:43;;;;;;;5.63;2.35;;;;;;;;;;5095505;27;20043;-64
2022/05/29 13:37:29;;;;;;;13.73;3.10;;;;;;;;;;5096534;27;20079;-64
2022/05/29 13:40:04;;;;;;;9.20;2.40;;;;;;;;;;5084304;28;20496;-64
2022/05/29 13:42:38;;;;;;;8.93;2.40;;;;;;;;;;5089066;27;20409;-64
2022/05/29 13:45:29;;;;;;;9.70;3.72;;;;;;;;;;5094525;28;20048;-64
2022/05/29 13:47:56;;;;;;;5.65;3.00;;;;;;;;;;5070522;27;20823;-64
2022/05/29 13:50:26;;;;;;;6.63;2.15;;;;;;;;;;5094897;28;20047;-64
2022/05/29 13:52:54;;;;;;;7.60;2.42;;;;;;;;;;5094573;27;20443;-64
2022/05/29 13:55:32;;;;;;;6.53;2.10;;;;;;;;;;5092287;27;20043;-64
2022/05/29 14:03:59;;;;;;;13.75;2.75;;;;;;;;;;5089753;28;20059;-64
2022/05/29 14:06:27;;;;;;;7.53;2.58;;;;;;;;;;5096289;27;20059;-64
2022/05/29 14:09:03;;;;;;;7.57;2.55;;;;;;;;;;5088151;28;20075;-64
2022/05/29 14:11:47;;;;;;;7.40;2.25;;;;;;;;;;5085536;28;20048;-64
2022/05/29 14:14:35;;;;;;;5.13;1.88;;;;;;;;;;5088002;28;20386;-64
2022/05/29 14:17:17;;;;;;;8.20;2.45;;;;;;;;;;5098079;27;20051;-64
2022/05/29 14:19:46;;;;;;;6.50;2.08;;;;;;;;;;5090778;27;20044;-64
2022/05/29 14:22:45;;;;;;;5.40;1.95;;;;;;;;;;5097048;28;20035;-64
2022/05/29 14:25:11;;;;;;;7.88;3.25;;;;;;;;;;5089012;28;20448;-64
2022/05/29 14:28:02;;;;;;;9.05;3.08;;;;;;;;;;5091069;28;20036;-64
2022/05/29 14:30:47;;;;;;;4.85;2.20;;;;;;;;;;5089767;27;20494;-64
2022/05/29 14:33:18;;;;;;;12.00;2.78;;;;;;;;;;5088478;27;20032;-64
2022/05/29 14:35:44;;;;;;;11.40;2.78;;;;;;;;;;5089867;28;20242;-64
2022/05/29 14:38:10;;;;;;;9.18;2.40;;;;;;;;;;5090675;28;20047;-64
2022/05/29 14:40:36;;;;;;;10.93;4.05;;;;;;;;;;5089013;27;20036;-64
2022/05/29 14:43:10;;;;;;;13.32;2.70;;;;;;;;;;5093927;27;20051;-64
2022/05/29 14:45:36;;;;;;;7.97;1.85;;;;;;;;;;5085462;28;20108;-64
2022/05/29 14:48:03;;;;;;;7.03;2.13;;;;;;;;;;5098312;27;20047;-64
2022/05/29 14:50:32;;;;;;;7.43;2.83;;;;;;;;;;5088491;28;20114;-64
2022/05/29 14:53:07;;;;;;;11.85;4.10;;;;;;;;;;5085928;28;20469;-64
2022/05/29 14:55:47;;;;;;;8.15;2.97;;;;;;;;;;5097372;28;20044;-64
2022/05/29 14:58:25;;;;;;;7.10;3.17;;;;;;;;;;5086033;27;20040;-64
2022/05/29 15:00:51;;;;;;;17.45;3.22;;;;;;;;;;5093723;27;20510;-64
2022/05/29 15:03:20;;;;;;;12.38;2.58;;;;;;;;;;5091634;28;20114;-64
2022/05/29 15:05:57;;;;;;;8.02;2.70;;;;;;;;;;5089713;28;20082;-64
2022/05/29 15:11:13;;;;;;;10.57;3.72;;;;;;;;;;5088065;28;20044;-64
2022/05/29 15:13:56;;;;;;;5.97;2.13;;;;;;;;;;5093741;27;20051;-64
2022/05/29 15:16:45;;;;;;;8.95;2.92;;;;;;;;;;5084869;28;20448;-64
2022/05/29 15:19:14;;;;;;;12.65;3.03;;;;;;;;;;5090004;27;20039;-66
2022/05/29 15:24:40;;;;;;;14.35;3.55;;;;;;;;;;5086215;28;20090;-64
2022/05/29 15:27:16;;;;;;;9.07;2.35;;;;;;;;;;5076760;28;20040;-64
2022/05/29 15:29:45;;;;;;;7.35;2.58;;;;;;;;;;5091270;28;20062;-64
2022/05/29 15:32:25;;;;;;;10.13;2.97;;;;;;;;;;5085393;28;20505;-64
2022/05/29 15:35:01;;;;;;;19.35;3.45;;;;;;;;;;5096348;28;20492;-64
2022/05/29 15:37:38;;;;;;;12.85;2.63;;;;;;;;;;5085598;28;20405;-64
2022/05/29 15:40:16;;;;;;;6.32;2.50;;;;;;;;;;5088883;28;20059;-64
2022/05/29 15:42:58;;;;;;;6.55;2.83;;;;;;;;;;5073202;28;20047;-64
2022/05/29 15:45:27;;;;;;;9.50;2.90;;;;;;;;;;5088253;28;20042;-64